Time;durP1;ratioP1;P1;durP2;ratioP2;P2;SDS_P1;SDS_P2;PMS_P1;PMS_P2;Temp;Humidity;BMP_temperature;BMP_pressure;BME280_temperature;BME280_humidity;BME280_pressure;Samples;Min_cycle;Max_cycle;Signal;HPM_P1;HPM_P2
2022/11/16 10:05:39;;;;;;;43.33;34.53;;;;;;;4.77;100.00;99627.03;1785955;78;38157;-65
2022/11/16 10:08:34;;;;;;;40.60;30.73;;;;;;;4.87;100.00;99628.50;1770076;80;21030;-64
2022/11/16 10:11:12;;;;;;;47.60;31.37;;;;;;;4.97;100.00;99634.80;1773612;80;21271;-63
2022/11/16 10:14:04;;;;;;;44.17;30.20;;;;;;;4.97;100.00;99634.80;1777619;80;21574;-65
2022/11/16 10:17:04;;;;;;;51.75;32.23;;;;;;;4.99;100.00;99637.21;1750609;81;21161;-64
2022/11/16 10:19:46;;;;;;;48.90;32.83;;;;;;;5.01;100.00;99631.41;1766375;80;20944;-68
2022/11/16 10:22:28;;;;;;;;;;;;;;;5.08;100.00;99624.63;1760840;80;21945;-64
2022/11/16 10:25:00;;;;;;;49.27;31.42;;;;;;;5.10;100.00;99628.65;1772282;80;21252;-68
2022/11/16 10:28:00;;;;;;;48.27;33.63;;;;;;;5.10;100.00;99617.02;1772147;80;21018;-66
2022/11/16 10:30:27;;;;;;;52.10;35.33;;;;;;;5.10;100.00;99613.15;1761171;80;20972;-69
2022/11/16 10:33:14;;;;;;;47.67;32.03;;;;;;;5.12;100.00;99616.88;1763051;79;22129;-66
2022/11/16 10:35:51;;;;;;;53.17;34.30;;;;;;;5.12;100.00;99614.30;1751522;80;21512;-65
2022/11/16 10:38:24;;;;;;;60.85;37.13;;;;;;;5.10;100.00;99611.86;1734770;81;21259;-68
2022/11/16 10:40:59;;;;;;;46.27;31.10;;;;;;;5.10;100.00;99609.77;1723820;82;20997;-63
2022/11/16 10:43:28;;;;;;;53.30;35.20;;;;;;;5.16;100.00;99608.31;1673470;82;21334;-64
2022/11/16 10:46:33;;;;;;;51.77;34.43;;;;;;;5.15;100.00;99607.48;1725067;82;22186;-68
2022/11/16 10:49:28;;;;;;;56.33;34.17;;;;;;;5.15;100.00;99607.48;1691050;83;21571;-67
2022/11/16 10:51:55;;;;;;;49.23;33.00;;;;;;;5.13;100.00;99605.08;1730608;82;21484;-65
2022/11/16 10:54:22;;;;;;;52.03;34.27;;;;;;;5.15;100.00;99601.02;1731435;81;20987;-65
2022/11/16 10:57:12;;;;;;;44.93;32.80;;;;;;;5.15;100.00;99597.15;1738484;80;21062;-68
2022/11/16 10:59:52;;;;;;;57.43;35.97;;;;;;;5.11;100.00;99595.41;1728490;81;21023;-64
2022/11/16 11:02:30;;;;;;;50.78;32.83;;;;;;;5.13;100.00;99594.74;1732274;81;21731;-67
2022/11/16 11:05:12;;;;;;;56.05;34.43;;;;;;;5.15;100.00;99587.30;1712194;81;21349;-67
2022/11/16 11:07:39;;;;;;;54.75;38.40;;;;;;;5.16;100.00;99578.61;1758960;79;20968;-63
2022/11/16 11:10:28;;;;;;;67.90;44.55;;;;;;;5.13;100.00;99571.98;1762744;80;21038;-70
2022/11/16 11:13:16;;;;;;;129.53;69.37;;;;;;;5.15;100.00;99574.39;1767924;80;20959;-66
2022/11/16 11:15:43;;;;;;;70.57;42.78;;;;;;;5.18;100.00;99570.99;1764495;80;20918;-69
2022/11/16 11:18:24;;;;;;;54.48;34.95;;;;;;;5.19;100.00;99570.50;1766731;79;21081;-68
2022/11/16 11:21:14;;;;;;;48.63;34.08;;;;;;;5.15;100.00;99570.52;1730636;81;20979;-68
2022/11/16 11:23:49;;;;;;;50.47;33.10;;;;;;;5.13;100.00;99577.95;1716844;81;21004;-70
2022/11/16 11:26:33;;;;;;;51.30;33.92;;;;;;;5.11;100.00;99575.20;1705469;82;20949;-69
2022/11/16 11:29:02;;;;;;;47.50;30.97;;;;;;;5.11;100.00;99566.16;1689580;83;20928;-68
2022/11/16 11:31:43;;;;;;;42.17;30.60;;;;;;;5.10;100.00;99569.23;1711796;83;21258;-66
2022/11/16 11:34:22;;;;;;;42.95;30.77;;;;;;;5.10;100.00;99570.52;1692658;83;21444;-68
2022/11/16 11:37:02;;;;;;;51.08;35.30;;;;;;;5.10;100.00;99569.23;1709270;82;20905;-70
2022/11/16 11:39:33;;;;;;;62.83;39.10;;;;;;;5.10;100.00;99571.81;1713608;82;20996;-69
2022/11/16 11:42:03;;;;;;;76.10;46.95;;;;;;;5.11;100.00;99563.11;1728038;82;21066;-61
2022/11/16 11:44:59;;;;;;;82.57;46.10;;;;;;;5.13;100.00;99567.62;1722235;82;21294;-68
2022/11/16 11:47:44;;;;;;;77.17;47.50;;;;;;;5.18;100.00;99567.11;1727352;82;21017;-67
2022/11/16 11:50:37;;;;;;;140.68;78.05;;;;;;;5.33;100.00;99568.54;1726004;82;21201;-67
2022/11/16 11:53:31;;;;;;;142.10;81.30;;;;;;;5.43;100.00;99562.70;1680796;82;21047;-67
2022/11/16 11:55:59;;;;;;;139.43;78.70;;;;;;;5.45;100.00;99565.91;1721478;82;21007;-66
2022/11/16 11:58:36;;;;;;;64.60;42.80;;;;;;;5.47;100.00;99553.64;1719559;81;21232;-67
2022/11/16 12:01:23;;;;;;;59.20;37.58;;;;;;;5.47;100.00;99557.52;1712275;81;21605;-69
2022/11/16 12:04:29;;;;;;;49.20;31.42;;;;;;;5.41;100.00;99546.54;1712645;81;21811;-68
2022/11/16 12:07:33;;;;;;;58.63;39.58;;;;;;;5.35;100.00;99544.64;1709264;83;21086;-67
2022/11/16 12:10:21;;;;;;;72.25;47.75;;;;;;;5.32;100.00;99548.84;1708547;83;21313;-67
2022/11/16 12:13:21;;;;;;;49.13;33.85;;;;;;;5.32;100.00;99550.13;1705814;83;21247;-67
2022/11/16 12:16:02;;;;;;;46.45;31.07;;;;;;;5.29;100.00;99549.17;1717364;82;21055;-67
2022/11/16 12:18:59;;;;;;;46.73;31.30;;;;;;;5.28;100.00;99546.27;1730940;82;21053;-69
2022/11/16 12:22:06;;;;;;;45.80;32.83;;;;;;;5.39;100.00;99542.53;1731578;82;21038;-68
2022/11/16 12:24:55;;;;;;;49.98;33.53;;;;;;;5.31;100.00;99542.07;1731598;82;21050;-68
2022/11/16 12:27:45;;;;;;;56.68;38.20;;;;;;;5.32;100.00;99539.31;1730992;82;21240;-68
2022/11/16 12:30:19;;;;;;;59.42;40.83;;;;;;;5.33;100.00;99538.33;1731454;82;21060;-68
2022/11/16 12:33:00;;;;;;;53.97;38.00;;;;;;;5.32;100.00;99531.55;1729715;81;21073;-69
2022/11/16 12:35:52;;;;;;;54.23;37.28;;;;;;;5.33;100.00;99536.23;1727334;82;21218;-68
2022/11/16 12:38:44;;;;;;;49.58;35.45;;;;;;;5.28;100.00;99530.77;1724007;83;21009;-68
2022/11/16 12:41:54;;;;;;;48.73;31.52;;;;;;;5.21;100.00;99529.33;1717205;82;21284;-67
2022/11/16 12:44:42;;;;;;;44.48;31.45;;;;;;;5.13;100.00;99527.58;1720562;81;21017;-68
2022/11/16 12:47:16;;;;;;;47.10;33.08;;;;;;;5.08;100.00;99531.15;1727138;81;21481;-70
2022/11/16 12:49:55;;;;;;;116.00;97.78;;;;;;;5.08;100.00;99527.27;1730398;82;21520;-70
2022/11/16 12:52:53;;;;;;;59.05;43.48;;;;;;;5.06;100.00;99521.45;1732975;82;20980;-68
2022/11/16 12:55:34;;;;;;;54.42;39.50;;;;;;;5.11;100.00;99526.12;1737516;81;21282;-68
2022/11/16 12:58:28;;;;;;;42.27;28.42;;;;;;;5.14;100.00;99523.20;1724125;82;20943;-68
2022/11/16 13:01:23;;;;;;;49.95;37.55;;;;;;;5.18;100.00;99524.98;1727088;81;22391;-68
2022/11/16 13:03:53;;;;;;;59.10;39.85;;;;;;;5.12;100.00;99513.55;1731127;81;21030;-68
2022/11/16 13:06:27;;;;;;;135.25;122.87;;;;;;;5.11;100.00;99517.91;1742348;82;21097;-65
2022/11/16 13:09:11;;;;;;;48.95;30.88;;;;;;;5.08;100.00;99511.77;1741734;81;21844;-67
2022/11/16 13:11:46;;;;;;;43.95;30.52;;;;;;;5.12;100.00;99514.34;1744677;81;20931;-66
2022/11/16 13:14:33;;;;;;;48.40;31.42;;;;;;;5.10;100.00;99511.11;1779670;80;20994;-66
2022/11/16 13:17:01;;;;;;;72.08;49.50;;;;;;;5.16;100.00;99512.23;1730154;81;20883;-66
2022/11/16 13:19:29;;;;;;;71.17;48.10;;;;;;;5.14;100.00;99511.58;1742468;80;20974;-67
2022/11/16 13:22:18;;;;;;;47.17;31.97;;;;;;;5.23;100.00;99508.02;1746007;81;21560;-68
2022/11/16 13:24:59;;;;;;;43.58;29.18;;;;;;;5.21;100.00;99505.27;1705906;83;20978;-67
2022/11/16 13:27:59;;;;;;;61.40;35.30;;;;;;;5.21;100.00;99503.98;1735691;81;21607;-66
2022/11/16 13:30:37;;;;;;;42.00;27.80;;;;;;;5.22;100.00;99500.42;1750421;81;21272;-67
2022/11/16 13:33:38;;;;;;;45.30;30.80;;;;;;;5.21;100.00;99501.39;1752654;81;21623;-69
2022/11/16 13:36:47;;;;;;;49.08;32.08;;;;;;;5.24;100.00;99501.88;1751124;81;21418;-68
2022/11/16 13:39:07;;;;;;;37.90;29.23;;;;;;;5.30;100.00;99481.00;1698965;84;20871;-68
2022/11/16 13:41:44;;;;;;;133.72;44.55;;;;;;;5.33;100.00;99491.02;1693531;84;22552;-70
2022/11/16 13:44:22;;;;;;;237.53;59.73;;;;;;;5.32;100.00;99480.36;1719209;81;21022;-69
2022/11/16 15:00:24;;;;;;;42.63;30.57;;;;;;;4.86;100.00;99494.39;1884765;75;22378;-66
2022/11/16 15:02:52;;;;;;;37.90;25.17;;;;;;;4.98;100.00;99499.52;1789375;80;21653;-65
2022/11/16 15:05:22;;;;;;;36.83;26.27;;;;;;;5.03;100.00;99494.66;1815801;78;21294;-67
2022/11/16 15:07:51;;;;;;;42.23;28.75;;;;;;;5.04;100.00;99496.29;1813405;78;21191;-71
2022/11/16 15:10:24;;;;;;;42.60;29.80;;;;;;;5.12;100.00;99492.88;1791690;79;22603;-67
2022/11/16 15:12:52;;;;;;;40.80;28.37;;;;;;;5.12;100.00;99491.09;1808742;77;21678;-64
2022/11/16 15:15:26;;;;;;;47.17;30.03;;;;;;;5.25;100.00;99492.34;1787842;80;21136;-65
2022/11/16 15:18:06;;;;;;;54.37;32.60;;;;;;;5.32;100.00;99495.87;1804009;78;21241;-68
2022/11/16 15:20:35;;;;;;;50.28;34.20;;;;;;;5.37;100.00;99486.62;1824996;78;21271;-65
2022/11/16 15:23:04;;;;;;;43.98;31.40;;;;;;;5.40;100.00;99490.66;1825101;78;20883;-68
2022/11/16 15:25:38;;;;;;;42.17;30.08;;;;;;;5.35;100.00;99483.91;1824838;78;20970;-69
2022/11/16 15:28:25;;;;;;;41.65;29.67;;;;;;;5.39;100.00;99488.26;1823723;78;21434;-66
2022/11/16 15:31:00;;;;;;;40.30;30.10;;;;;;;5.39;100.00;99486.48;1822783;78;21229;-66
2022/11/16 15:33:34;;;;;;;40.38;29.18;;;;;;;5.37;100.00;99484.04;1804921;78;21147;-64
2022/11/16 15:36:03;;;;;;;41.87;30.50;;;;;;;5.40;100.00;99483.40;1818389;77;21713;-65
2022/11/16 15:38:31;;;;;;;48.68;31.37;;;;;;;5.43;100.00;99479.99;1770317;78;21807;-64
2022/11/16 15:41:01;;;;;;;44.30;29.67;;;;;;;5.46;100.00;99488.70;1758883;80;20871;-64
2022/11/16 15:43:38;;;;;;;43.40;29.72;;;;;;;5.44;100.00;99485.47;1791571;78;21658;-66
2022/11/16 15:46:06;;;;;;;44.38;28.75;;;;;;;5.47;100.00;99485.14;1772595;80;20847;-67
2022/11/16 15:48:35;;;;;;;42.73;28.35;;;;;;;5.50;100.00;99475.77;1789051;78;21535;-71
2022/11/16 15:51:18;;;;;;;45.78;31.37;;;;;;;5.55;100.00;99481.22;1785463;78;21087;-70
2022/11/16 15:53:54;;;;;;;77.30;64.17;;;;;;;5.62;100.00;99478.77;1801676;78;20922;-67
2022/11/16 15:56:29;;;;;;;43.80;29.55;;;;;;;5.57;100.00;99481.87;1811413;78;21289;-67
2022/11/16 15:59:01;;;;;;;44.80;30.10;;;;;;;5.55;100.00;99476.05;1812384;78;21050;-66
2022/11/16 16:01:28;;;;;;;43.75;29.15;;;;;;;5.56;100.00;99472.97;1808523;78;21070;-66
2022/11/16 16:04:01;;;;;;;41.47;28.60;;;;;;;5.55;100.00;99470.88;1806692;78;21056;-73
2022/11/16 16:06:50;;;;;;;44.00;29.17;;;;;;;5.60;100.00;99472.95;1808260;78;21262;-64
2022/11/16 16:09:37;;;;;;;42.62;28.17;;;;;;;5.68;100.00;99469.52;1793481;78;21556;-70
2022/11/16 16:12:25;;;;;;;45.52;29.32;;;;;;;5.67;100.00;99468.71;1808259;78;21079;-65
2022/11/16 16:14:52;;;;;;;38.35;25.95;;;;;;;5.71;100.00;99460.13;1812768;78;21450;-66
2022/11/16 16:17:28;;;;;;;37.93;26.90;;;;;;;5.76;100.00;99459.95;1801249;78;21011;-69
2022/11/16 16:20:03;;;;;;;38.45;27.17;;;;;;;5.71;100.00;99464.00;1811626;78;21045;-64
2022/11/16 16:22:32;;;;;;;43.70;28.67;;;;;;;5.65;100.00;99458.24;1813480;78;21296;-64
2022/11/16 16:25:03;;;;;;;59.13;42.60;;;;;;;5.59;100.00;99454.05;1813026;78;21298;-65
2022/11/16 16:27:29;;;;;;;65.47;45.92;;;;;;;5.53;100.00;99457.34;1810325;78;20943;-64
2022/11/16 16:33:21;;;;;;;56.90;34.67;;;;;;;4.83;100.00;99455.49;1844888;75;22738;-65
2022/11/16 16:35:49;;;;;;;43.98;29.52;;;;;;;5.10;100.00;99461.22;1804819;77;20915;-68
2022/11/16 16:38:16;;;;;;;44.18;29.42;;;;;;;4.98;100.00;99456.91;1812413;77;22194;-64
2022/11/16 16:40:44;;;;;;;40.55;29.65;;;;;;;5.29;100.00;99453.56;1796287;77;21228;-65
2022/11/16 16:43:11;;;;;;;48.78;34.03;;;;;;;5.43;100.00;99452.85;1816613;78;20978;-70
2022/11/16 16:45:41;;;;;;;43.13;32.70;;;;;;;5.50;100.00;99453.79;1811901;77;21019;-65
2022/11/16 16:48:11;;;;;;;39.30;28.17;;;;;;;5.52;100.00;99453.61;1794937;79;21614;-65
2022/11/16 16:50:38;;;;;;;39.03;27.40;;;;;;;5.49;100.00;99447.02;1823321;77;21991;-65
2022/11/16 16:53:08;;;;;;;38.00;25.52;;;;;;;5.46;100.00;99440.89;1814497;77;20904;-72
2022/11/16 16:55:36;;;;;;;42.10;28.62;;;;;;;5.47;100.00;99450.25;1774328;80;21288;-62
2022/11/16 16:58:04;;;;;;;39.63;27.95;;;;;;;5.53;100.00;99449.58;1802408;78;20979;-65
2022/11/16 17:00:31;;;;;;;36.60;26.17;;;;;;;5.57;100.00;99448.26;1806683;78;20967;-64
2022/11/16 17:03:01;;;;;;;34.80;24.70;;;;;;;5.55;100.00;99446.81;1765144;79;20923;-69
2022/11/16 17:05:31;;;;;;;41.80;28.98;;;;;;;5.56;100.00;99445.34;1812964;78;21719;-63
2022/11/16 17:07:59;;;;;;;33.48;23.85;;;;;;;5.53;100.00;99443.12;1804748;79;20959;-64
2022/11/16 17:10:26;;;;;;;36.53;26.27;;;;;;;5.58;100.00;99446.48;1804864;77;22065;-61
2022/11/16 17:12:56;;;;;;;38.87;29.77;;;;;;;5.58;100.00;99443.40;1809486;77;21867;-60
2022/11/16 17:15:23;;;;;;;37.53;25.75;;;;;;;5.56;100.00;99452.30;1795082;77;21276;-63
2022/11/16 17:17:51;;;;;;;36.60;27.20;;;;;;;5.55;100.00;99443.73;1787835;77;21477;-61
2022/11/16 17:20:18;;;;;;;39.33;27.87;;;;;;;5.48;100.00;99445.39;1799238;77;20980;-62
2022/11/16 17:22:46;;;;;;;38.47;27.83;;;;;;;5.46;100.00;99440.89;1788795;77;21049;-65
2022/11/16 17:25:15;;;;;;;41.02;29.67;;;;;;;5.48;100.00;99444.58;1806773;77;21968;-61
2022/11/16 17:27:42;;;;;;;39.38;27.40;;;;;;;5.56;100.00;99444.53;1818482;77;21179;-61
2022/11/16 17:30:11;;;;;;;39.50;27.32;;;;;;;5.64;100.00;99445.78;1809682;77;20920;-69
2022/11/16 17:32:39;;;;;;;42.23;28.83;;;;;;;5.61;100.00;99446.94;1793249;77;21440;-62
2022/11/16 17:35:08;;;;;;;37.40;26.07;;;;;;;5.57;100.00;99443.09;1788374;77;21605;-64
2022/11/16 17:37:37;;;;;;;38.78;27.45;;;;;;;5.55;100.00;99442.44;1776435;79;21470;-63
2022/11/16 17:40:05;;;;;;;35.28;25.65;;;;;;;5.55;100.00;99437.27;1777687;79;21162;-70
2022/11/16 17:42:37;;;;;;;45.33;29.45;;;;;;;5.52;100.00;99433.73;1784703;79;21006;-61
2022/11/16 17:45:03;;;;;;;60.28;34.05;;;;;;;5.43;100.00;99439.93;1790169;79;20977;-62
2022/11/16 17:47:32;;;;;;;48.78;29.37;;;;;;;5.37;100.00;99438.81;1787732;77;21054;-64
2022/11/16 17:49:59;;;;;;;43.38;28.12;;;;;;;5.36;100.00;99433.83;1766954;79;20935;-68
2022/11/16 17:52:26;;;;;;;39.60;26.70;;;;;;;5.37;100.00;99426.38;1782727;79;21240;-60
2022/11/16 17:54:55;;;;;;;42.15;29.18;;;;;;;5.33;100.00;99423.33;1791604;77;20924;-62
2022/11/16 17:57:23;;;;;;;43.48;29.85;;;;;;;5.30;100.00;99430.61;1784867;79;21041;-64
2022/11/16 17:59:51;;;;;;;32.67;21.97;;;;;;;5.34;100.00;99424.96;1771566;79;20989;-65
2022/11/16 18:02:18;;;;;;;29.55;22.10;;;;;;;5.37;100.00;99422.51;1776020;79;20947;-63
2022/11/16 18:04:47;;;;;;;36.83;22.87;;;;;;;5.29;100.00;99409.63;1773986;79;21271;-72
2022/11/16 18:07:14;;;;;;;30.08;21.20;;;;;;;5.19;100.00;99409.86;1774619;79;21076;-64
2022/11/16 18:09:41;;;;;;;32.25;22.52;;;;;;;5.10;100.00;99417.31;1788150;79;20927;-65
2022/11/16 18:12:09;;;;;;;34.85;22.80;;;;;;;5.06;100.00;99406.50;1786641;79;21013;-64
2022/11/16 18:14:39;;;;;;;34.00;22.00;;;;;;;5.03;100.00;99406.84;1770334;79;20981;-73
2022/11/16 18:17:07;;;;;;;31.33;21.45;;;;;;;5.01;100.00;99402.83;1786709;79;21835;-65
2022/11/16 18:19:36;;;;;;;33.50;22.25;;;;;;;5.03;100.00;99402.96;1767464;79;20855;-65
2022/11/16 18:22:03;;;;;;;33.23;22.07;;;;;;;5.02;100.00;99411.69;1782186;79;20973;-65
2022/11/16 18:24:30;;;;;;;34.58;22.07;;;;;;;5.04;100.00;99412.84;1783564;78;20931;-65
2022/11/16 18:26:58;;;;;;;34.03;22.60;;;;;;;5.02;100.00;99418.64;1792814;79;20997;-64
2022/11/16 18:29:25;;;;;;;29.60;21.30;;;;;;;5.00;100.00;99416.23;1792821;79;21085;-64
2022/11/16 18:31:54;;;;;;;31.42;22.27;;;;;;;5.02;100.00;99416.86;1796994;78;20982;-65
2022/11/16 18:34:21;;;;;;;32.00;22.32;;;;;;;5.09;100.00;99411.83;1816873;77;21661;-71
2022/11/16 18:36:49;;;;;;;30.77;21.97;;;;;;;5.12;100.00;99400.68;1818821;77;21492;-64
2022/11/16 18:39:16;;;;;;;33.40;23.27;;;;;;;5.16;100.00;99393.40;1820436;78;21108;-63
2022/11/16 18:41:45;;;;;;;32.38;21.75;;;;;;;5.12;100.00;99385.67;1810524;78;21861;-64
2022/11/16 18:44:13;;;;;;;32.85;21.65;;;;;;;5.10;100.00;99385.82;1803344;77;21382;-67
2022/11/16 18:46:41;;;;;;;35.63;23.70;;;;;;;5.07;100.00;99384.86;1801494;78;20939;-64
2022/11/16 18:49:10;;;;;;;34.27;22.10;;;;;;;5.04;100.00;99384.42;1802226;77;20997;-62
2022/11/16 18:51:37;;;;;;;32.78;21.90;;;;;;;5.03;100.00;99375.84;1790690;78;20918;-69
2022/11/16 18:54:05;;;;;;;30.90;20.30;;;;;;;5.04;100.00;99377.47;1816956;78;21252;-63
2022/11/16 18:56:33;;;;;;;37.67;22.13;;;;;;;5.02;100.00;99376.02;1789158;78;20844;-62
2022/11/16 18:59:02;;;;;;;35.50;21.35;;;;;;;4.99;100.00;99377.16;1801029;78;20992;-63
2022/11/16 19:01:29;;;;;;;31.35;20.27;;;;;;;5.01;100.00;99377.80;1807536;78;20942;-65
2022/11/16 19:03:56;;;;;;;34.35;21.48;;;;;;;5.01;100.00;99380.39;1820080;77;21003;-65
2022/11/16 19:06:24;;;;;;;33.02;21.95;;;;;;;5.03;100.00;99371.16;1808726;77;21263;-63
2022/11/16 19:08:54;;;;;;;35.40;23.47;;;;;;;4.93;100.00;99370.09;1807042;77;20943;-74
2022/11/16 19:11:22;;;;;;;32.70;20.70;;;;;;;4.89;100.00;99370.12;1809188;78;21073;-63
2022/11/16 19:13:53;;;;;;;35.13;20.85;;;;;;;4.85;100.00;99367.06;1820006;78;21480;-63
2022/11/16 19:16:20;;;;;;;31.25;19.90;;;;;;;4.90;100.00;99373.50;1781154;77;21073;-64
2022/11/16 19:18:48;;;;;;;35.03;21.25;;;;;;;4.87;100.00;99371.55;1812774;77;21127;-64
2022/11/16 19:21:20;;;;;;;60.12;29.30;;;;;;;4.95;100.00;99360.87;1818304;77;20935;-63
2022/11/16 19:23:51;;;;;;;77.87;41.77;;;;;;;5.02;100.00;99353.58;1817777;77;21512;-73
2022/11/16 19:26:20;;;;;;;50.60;30.08;;;;;;;5.06;100.00;99348.39;1802126;77;22166;-62
2022/11/16 19:28:48;;;;;;;55.12;31.77;;;;;;;4.99;100.00;99356.49;1750504;81;20964;-73
2022/11/16 19:31:25;;;;;;;39.60;24.18;;;;;;;5.09;100.00;99352.42;1764639;79;20988;-64
2022/11/16 19:33:59;;;;;;;37.05;23.47;;;;;;;5.04;100.00;99351.64;1710755;81;21022;-62
2022/11/16 19:36:27;;;;;;;35.52;21.68;;;;;;;5.07;100.00;99348.70;1729080;81;21022;-63
2022/11/16 19:38:55;;;;;;;36.45;22.65;;;;;;;5.15;100.00;99349.63;1739675;81;20932;-64
2022/11/16 19:41:23;;;;;;;37.17;22.60;;;;;;;5.23;100.00;99354.29;1734221;81;21145;-65
2022/11/16 19:43:51;;;;;;;34.25;21.90;;;;;;;5.26;100.00;99346.66;1732997;81;21272;-64
2022/11/16 19:46:20;;;;;;;34.60;21.65;;;;;;;5.28;100.00;99336.97;1734042;81;21158;-63
2022/11/16 19:48:48;;;;;;;38.53;27.00;;;;;;;5.31;100.00;99340.52;1720179;81;21570;-71
2022/11/16 19:51:21;;;;;;;41.40;24.50;;;;;;;5.29;100.00;99335.50;1734282;81;21789;-66
2022/11/16 19:53:49;;;;;;;38.70;23.38;;;;;;;5.32;100.00;99331.78;1728780;81;21048;-67
2022/11/16 19:56:18;;;;;;;33.83;21.07;;;;;;;5.31;100.00;99327.59;1734047;81;21303;-64
2022/11/16 19:58:45;;;;;;;29.77;20.85;;;;;;;5.28;100.00;99331.31;1727223;81;20980;-70
2022/11/16 20:01:19;;;;;;;29.45;18.57;;;;;;;5.29;100.00;99333.41;1732188;81;21027;-67
2022/11/16 20:03:46;;;;;;;31.55;20.10;;;;;;;5.31;100.00;99325.01;1733375;81;20999;-66
2022/11/16 20:06:20;;;;;;;27.35;18.02;;;;;;;5.27;100.00;99321.96;1734735;81;21304;-65
2022/11/16 20:08:52;;;;;;;31.12;18.98;;;;;;;5.25;100.00;99323.90;1733000;81;21244;-68
2022/11/16 20:11:22;;;;;;;31.87;19.48;;;;;;;5.31;100.00;99323.72;1710785;81;21007;-70
2022/11/16 20:13:50;;;;;;;30.05;20.05;;;;;;;5.30;100.00;99324.67;1718982;81;21066;-64
2022/11/16 20:16:22;;;;;;;28.40;19.55;;;;;;;5.30;100.00;99319.50;1727948;81;20924;-64
2022/11/16 20:18:49;;;;;;;30.37;19.62;;;;;;;5.30;100.00;99316.92;1728028;81;21537;-64
2022/11/16 20:21:21;;;;;;;32.00;21.37;;;;;;;5.31;100.00;99313.38;1730736;81;21657;-73
2022/11/16 20:23:50;;;;;;;30.00;20.02;;;;;;;5.32;100.00;99317.56;1735856;81;20959;-65
2022/11/16 20:26:18;;;;;;;33.25;22.15;;;;;;;5.33;100.00;99309.63;1713176;81;21575;-65
2022/11/16 20:28:45;;;;;;;29.10;19.98;;;;;;;5.37;100.00;99312.67;1732955;81;20908;-62
2022/11/16 20:31:15;;;;;;;34.92;19.65;;;;;;;5.39;100.00;99313.32;1724733;81;21007;-65
2022/11/16 20:34:00;;;;;;;35.35;21.23;;;;;;;5.42;100.00;99309.10;1714760;81;21933;-64
2022/11/16 20:36:29;;;;;;;34.70;21.52;;;;;;;5.46;100.00;99310.36;1719230;82;20961;-62
2022/11/16 20:38:56;;;;;;;29.57;19.82;;;;;;;5.53;100.00;99298.82;1710388;82;21083;-63
2022/11/16 20:41:25;;;;;;;33.50;20.27;;;;;;;5.55;100.00;99297.68;1692591;83;21082;-64
2022/11/16 20:43:58;;;;;;;34.50;18.92;;;;;;;5.60;100.00;99299.24;1727127;81;21006;-63
2022/11/16 20:46:27;;;;;;;35.60;20.52;;;;;;;5.59;100.00;99294.26;1751376;81;21138;-63
2022/11/16 20:48:55;;;;;;;30.97;19.57;;;;;;;5.61;100.00;99300.87;1751581;81;22437;-73
2022/11/16 20:51:24;;;;;;;32.13;21.73;;;;;;;5.67;100.00;99298.56;1752026;81;21277;-63
2022/11/16 20:53:52;;;;;;;30.57;20.80;;;;;;;5.69;100.00;99294.83;1752045;81;21454;-62
2022/11/16 20:56:19;;;;;;;34.43;19.23;;;;;;;5.76;100.00;99291.06;1713059;83;20971;-69
2022/11/16 20:58:48;;;;;;;33.75;20.08;;;;;;;5.78;100.00;99290.38;1751320;81;21289;-62
2022/11/16 21:01:18;;;;;;;32.63;19.80;;;;;;;5.75;100.00;99285.06;1719792;83;20943;-64
2022/11/16 21:03:46;;;;;;;29.85;21.00;;;;;;;5.77;100.00;99279.73;1707892;82;21450;-61
2022/11/16 21:06:13;;;;;;;31.90;19.30;;;;;;;5.80;100.00;99276.80;1734064;81;21024;-70
2022/11/16 21:08:42;;;;;;;28.32;19.12;;;;;;;5.82;100.00;99278.20;1726889;81;21620;-62
2022/11/16 21:11:22;;;;;;;31.27;20.40;;;;;;;5.85;100.00;99277.06;1728081;81;21262;-73
2022/11/16 21:16:35;;;;;;;33.95;23.07;;;;;;;5.90;100.00;99273.94;1745556;80;21365;-72
2022/11/16 21:19:02;;;;;;;32.57;22.07;;;;;;;5.91;100.00;99280.25;1745001;80;20959;-67
2022/11/16 21:21:31;;;;;;;30.75;20.75;;;;;;;5.94;100.00;99275.22;1746559;80;21596;-61
2022/11/16 21:23:58;;;;;;;31.57;20.60;;;;;;;5.98;100.00;99273.89;1746428;80;21308;-71
2022/11/16 21:26:27;;;;;;;32.58;21.10;;;;;;;5.97;100.00;99270.50;1744560;80;21552;-60
2022/11/16 21:28:55;;;;;;;30.97;21.70;;;;;;;5.99;100.00;99266.47;1744159;80;21001;-66
2022/11/16 21:31:25;;;;;;;35.10;21.97;;;;;;;6.01;100.00;99261.89;1747366;80;22055;-62
2022/11/16 21:33:53;;;;;;;33.23;21.12;;;;;;;6.07;100.00;99259.91;1762910;80;21170;-62
2022/11/16 21:36:28;;;;;;;29.93;18.97;;;;;;;6.08;100.00;99257.62;1767630;80;21063;-61
2022/11/16 21:38:56;;;;;;;33.43;21.77;;;;;;;6.07;100.00;99256.83;1806359;77;21118;-60
2022/11/16 21:41:24;;;;;;;33.70;22.13;;;;;;;6.01;100.00;99256.23;1798987;78;21231;-61
2022/11/16 21:43:51;;;;;;;29.73;20.00;;;;;;;5.97;100.00;99249.81;1784253;80;21180;-66
2022/11/16 21:46:23;;;;;;;27.53;18.63;;;;;;;5.95;100.00;99251.78;1840485;77;21503;-60
2022/11/16 21:48:54;;;;;;;28.77;17.73;;;;;;;5.94;100.00;99248.86;1844616;77;21099;-62
2022/11/16 21:51:23;;;;;;;28.50;20.27;;;;;;;5.89;100.00;99244.70;1845104;77;21241;-62
2022/11/16 21:53:50;;;;;;;32.42;21.33;;;;;;;5.83;100.00;99246.68;1770095;80;21319;-63
2022/11/16 21:56:21;;;;;;;31.23;20.00;;;;;;;5.91;100.00;99245.80;1748620;82;22416;-62
2022/11/16 21:58:55;;;;;;;36.00;19.60;;;;;;;5.92;100.00;99237.91;1748216;81;21638;-61
2022/11/16 22:09:53;;;;;;;34.50;21.73;;;;;;;5.91;100.00;99227.69;1689024;84;21561;-65
2022/11/16 22:12:20;;;;;;;30.67;19.93;;;;;;;5.89;100.00;99224.00;1691014;84;21464;-63
